Aviation Digital Data Service (ADDS)

Output produced by METARs form (0820 UTC 20 March 2019)
found at http://www.aviationweather.gov/metar/data/
 
METAR text: ZMUB 200800Z 32008MPS 9999 FEW033 M05/M17 Q1019 NOSIG RMK QFE656.7 34 MOP
Conditions at: ZMUB (ULAN-BATOR , MG) observed 0800 UTC 20 March 2019
Temperature: -5.0°C (23°F)
Dewpoint: -17.0°C ( 1°F) [RH = 38%]
Pressure (altimeter): 30.09 inches Hg (1019.0 mb)
Winds: from the NW (320 degrees) at 18 MPH (16 knots; 8.2 m/s)
Visibility: 6 or more miles (10+ km)
Ceiling: at least 12,000 feet AGL
Clouds: few clouds at 3300 feet AGL
Weather: no significant weather observed at this time

METAR text: ZMUB 200730Z 31008MPS 280V340 9999 FEW033 M05/M16 Q1019 NOSIG RMK QFE656.6 38 MOP
Conditions at: ZMUB (ULAN-BATOR , MG) observed 0730 UTC 20 March 2019
Temperature: -5.0°C (23°F)
Dewpoint: -16.0°C ( 3°F) [RH = 42%]
Pressure (altimeter): 30.09 inches Hg (1019.0 mb)
Winds: from the NW (310 degrees) at 18 MPH (16 knots; 8.2 m/s)
Visibility: 6 or more miles (10+ km)
Ceiling: at least 12,000 feet AGL
Clouds: few clouds at 3300 feet AGL
Weather: no significant weather observed at this time

METAR text: ZMUB 200700Z 32008MPS 290V350 9999 FEW033 M05/M16 Q1019 NOSIG RMK QFE656.5 37 MOP
Conditions at: ZMUB (ULAN-BATOR , MG) observed 0700 UTC 20 March 2019
Temperature: -5.0°C (23°F)
Dewpoint: -16.0°C ( 3°F) [RH = 42%]
Pressure (altimeter): 30.09 inches Hg (1019.0 mb)
Winds: from the NW (320 degrees) at 18 MPH (16 knots; 8.2 m/s)
Visibility: 6 or more miles (10+ km)
Ceiling: at least 12,000 feet AGL
Clouds: few clouds at 3300 feet AGL
Weather: no significant weather observed at this time

METAR text: ZMUB 200630Z 32008MPS 290V350 9999 FEW033 M05/M16 Q1019 NOSIG RMK QFE656.7 37 MOP
Conditions at: ZMUB (ULAN-BATOR , MG) observed 0630 UTC 20 March 2019
Temperature: -5.0°C (23°F)
Dewpoint: -16.0°C ( 3°F) [RH = 42%]
Pressure (altimeter): 30.09 inches Hg (1019.0 mb)
Winds: from the NW (320 degrees) at 18 MPH (16 knots; 8.2 m/s)
Visibility: 6 or more miles (10+ km)
Ceiling: at least 12,000 feet AGL
Clouds: few clouds at 3300 feet AGL
Weather: no significant weather observed at this time

METAR text: ZMUB 200600Z 33008MPS 290V360 9999 FEW033 M05/M16 Q1019 NOSIG RMK QFE656.6 37 MOP
Conditions at: ZMUB (ULAN-BATOR , MG) observed 0600 UTC 20 March 2019
Temperature: -5.0°C (23°F)
Dewpoint: -16.0°C ( 3°F) [RH = 42%]
Pressure (altimeter): 30.09 inches Hg (1019.0 mb)
Winds: from the NNW (330 degrees) at 18 MPH (16 knots; 8.2 m/s)
Visibility: 6 or more miles (10+ km)
Ceiling: at least 12,000 feet AGL
Clouds: few clouds at 3300 feet AGL
Weather: no significant weather observed at this time

METAR text: ZMUB 200530Z 34007MPS 9999 FEW033 M05/M18 Q1019 NOSIG RMK QFE656.5 30 MOP
Conditions at: ZMUB (ULAN-BATOR , MG) observed 0530 UTC 20 March 2019
Temperature: -5.0°C (23°F)
Dewpoint: -18.0°C (-0°F) [RH = 35%]
Pressure (altimeter): 30.09 inches Hg (1019.0 mb)
Winds: from the NNW (340 degrees) at 16 MPH (14 knots; 7.2 m/s)
Visibility: 6 or more miles (10+ km)
Ceiling: at least 12,000 feet AGL
Clouds: few clouds at 3300 feet AGL
Weather: no significant weather observed at this time

METAR text: ZMUB 200500Z 33007MPS 9999 FEW033 M05/M18 Q1019 NOSIG RMK QFE656.5 32 MOP
Conditions at: ZMUB (ULAN-BATOR , MG) observed 0500 UTC 20 March 2019
Temperature: -5.0°C (23°F)
Dewpoint: -18.0°C (-0°F) [RH = 35%]
Pressure (altimeter): 30.09 inches Hg (1019.0 mb)
Winds: from the NNW (330 degrees) at 16 MPH (14 knots; 7.2 m/s)
Visibility: 6 or more miles (10+ km)
Ceiling: at least 12,000 feet AGL
Clouds: few clouds at 3300 feet AGL
Weather: no significant weather observed at this time

METAR text: ZMUB 200430Z 35006MPS 310V050 9999 FEW033 M06/M17 Q1019 NOSIG RMK QFE656.5 35 MOP
Conditions at: ZMUB (ULAN-BATOR , MG) observed 0430 UTC 20 March 2019
Temperature: -6.0°C (21°F)
Dewpoint: -17.0°C ( 1°F) [RH = 41%]
Pressure (altimeter): 30.09 inches Hg (1019.0 mb)
Winds: from the N (350 degrees) at 14 MPH (12 knots; 6.2 m/s)
Visibility: 6 or more miles (10+ km)
Ceiling: at least 12,000 feet AGL
Clouds: few clouds at 3300 feet AGL
Weather: no significant weather observed at this time

METAR text: ZMUB 200400Z 35007MPS 330V030 9999 FEW033 M06/M17 Q1019 NOSIG RMK QFE656.6 37 MOP
Conditions at: ZMUB (ULAN-BATOR , MG) observed 0400 UTC 20 March 2019
Temperature: -6.0°C (21°F)
Dewpoint: -17.0°C ( 1°F) [RH = 41%]
Pressure (altimeter): 30.09 inches Hg (1019.0 mb)
Winds: from the N (350 degrees) at 16 MPH (14 knots; 7.2 m/s)
Visibility: 6 or more miles (10+ km)
Ceiling: at least 12,000 feet AGL
Clouds: few clouds at 3300 feet AGL
Weather: no significant weather observed at this time

METAR text: ZMUB 200330Z 01006MPS 330V040 9999 FEW033 M07/M18 Q1019 NOSIG RMK QFE656.6 40 MOP
Conditions at: ZMUB (ULAN-BATOR , MG) observed 0330 UTC 20 March 2019
Temperature: -7.0°C (19°F)
Dewpoint: -18.0°C (-0°F) [RH = 41%]
Pressure (altimeter): 30.09 inches Hg (1019.0 mb)
Winds: from the N (10 degrees) at 14 MPH (12 knots; 6.2 m/s)
Visibility: 6 or more miles (10+ km)
Ceiling: at least 12,000 feet AGL
Clouds: few clouds at 3300 feet AGL
Weather: no significant weather observed at this time

METAR text: ZMUB 200300Z 34005MPS 300V020 9999 FEW033 M08/M17 Q1019 NOSIG RMK QFE656.7 45 MOP
Conditions at: ZMUB (ULAN-BATOR , MG) observed 0300 UTC 20 March 2019
Temperature: -8.0°C (18°F)
Dewpoint: -17.0°C ( 1°F) [RH = 48%]
Pressure (altimeter): 30.09 inches Hg (1019.0 mb)
Winds: from the NNW (340 degrees) at 12 MPH (10 knots; 5.1 m/s)
Visibility: 6 or more miles (10+ km)
Ceiling: at least 12,000 feet AGL
Clouds: few clouds at 3300 feet AGL
Weather: no significant weather observed at this time

METAR text: ZMUB 200230Z 34005MPS 310V010 9999 FEW033 M08/M16 Q1019 NOSIG RMK QFE656.6 49 MOP
Conditions at: ZMUB (ULAN-BATOR , MG) observed 0230 UTC 20 March 2019
Temperature: -8.0°C (18°F)
Dewpoint: -16.0°C ( 3°F) [RH = 53%]
Pressure (altimeter): 30.09 inches Hg (1019.0 mb)
Winds: from the NNW (340 degrees) at 12 MPH (10 knots; 5.1 m/s)
Visibility: 6 or more miles (10+ km)
Ceiling: at least 12,000 feet AGL
Clouds: few clouds at 3300 feet AGL
Weather: no significant weather observed at this time

METAR text: ZMUB 200200Z 35004MPS 310V030 9999 FEW033 M09/M17 Q1019 NOSIG RMK QFE656.6 51 MOP
Conditions at: ZMUB (ULAN-BATOR , MG) observed 0200 UTC 20 March 2019
Temperature: -9.0°C (16°F)
Dewpoint: -17.0°C ( 1°F) [RH = 52%]
Pressure (altimeter): 30.09 inches Hg (1019.0 mb)
Winds: from the N (350 degrees) at 9 MPH (8 knots; 4.1 m/s)
Visibility: 6 or more miles (10+ km)
Ceiling: at least 12,000 feet AGL
Clouds: few clouds at 3300 feet AGL
Weather: no significant weather observed at this time

METAR text: ZMUB 200130Z 36005MPS 320V030 9999 FEW033 M10/M16 Q1019 NOSIG RMK QFE656.6 56 MOP
Conditions at: ZMUB (ULAN-BATOR , MG) observed 0130 UTC 20 March 2019
Temperature: -10.0°C (14°F)
Dewpoint: -16.0°C ( 3°F) [RH = 61%]
Pressure (altimeter): 30.09 inches Hg (1019.0 mb)
Winds: from the N (360 degrees) at 12 MPH (10 knots; 5.1 m/s)
Visibility: 6 or more miles (10+ km)
Ceiling: at least 12,000 feet AGL
Clouds: few clouds at 3300 feet AGL
Weather: no significant weather observed at this time

METAR text: ZMUB 200100Z 33005MPS 300V360 9999 FEW033 M11/M16 Q1018 NOSIG RMK QFE656.3 60 MOP
Conditions at: ZMUB (ULAN-BATOR , MG) observed 0100 UTC 20 March 2019
Temperature: -11.0°C (12°F)
Dewpoint: -16.0°C ( 3°F) [RH = 67%]
Pressure (altimeter): 30.06 inches Hg (1018.0 mb)
Winds: from the NNW (330 degrees) at 12 MPH (10 knots; 5.1 m/s)
Visibility: 6 or more miles (10+ km)
Ceiling: at least 12,000 feet AGL
Clouds: few clouds at 3300 feet AGL
Weather: no significant weather observed at this time

METAR text: ZMUB 200030Z 32005MPS 9999 FEW033 M12/M16 Q1018 NOSIG RMK QFE656.3 67 MOP
Conditions at: ZMUB (ULAN-BATOR , MG) observed 0030 UTC 20 March 2019
Temperature: -12.0°C (10°F)
Dewpoint: -16.0°C ( 3°F) [RH = 72%]
Pressure (altimeter): 30.06 inches Hg (1018.0 mb)
Winds: from the NW (320 degrees) at 12 MPH (10 knots; 5.1 m/s)
Visibility: 6 or more miles (10+ km)
Ceiling: at least 12,000 feet AGL
Clouds: few clouds at 3300 feet AGL
Weather: no significant weather observed at this time

METAR text: ZMUB 200000Z 32005MPS 9999 FEW033 SCT100 M13/M17 Q1018 NOSIG RMK QFE656.0 69 MOP
Conditions at: ZMUB (ULAN-BATOR , MG) observed 0000 UTC 20 March 2019
Temperature: -13.0°C ( 9°F)
Dewpoint: -17.0°C ( 1°F) [RH = 72%]
Pressure (altimeter): 30.06 inches Hg (1018.0 mb)
Winds: from the NW (320 degrees) at 12 MPH (10 knots; 5.1 m/s)
Visibility: 6 or more miles (10+ km)
Ceiling: at least 12,000 feet AGL
Clouds: few clouds at 3300 feet AGL
scattered clouds at 10000 feet AGL
Weather: no significant weather observed at this time

METAR text: ZMUB 192330Z 31003MPS 280V350 9999 SCT100 M13/M17 Q1017 NOSIG RMK QFE655.7 71 MOP
Conditions at: ZMUB (ULAN-BATOR , MG) observed 2330 UTC 19 March 2019
Temperature: -13.0°C ( 9°F)
Dewpoint: -17.0°C ( 1°F) [RH = 72%]
Pressure (altimeter): 30.03 inches Hg (1017.0 mb)
Winds: from the NW (310 degrees) at 7 MPH (6 knots; 3.1 m/s)
Visibility: 6 or more miles (10+ km)
Ceiling: at least 12,000 feet AGL
Clouds: scattered clouds at 10000 feet AGL
Weather: no significant weather observed at this time

METAR text: ZMUB 192300Z 31004MPS 9999 SCT100 M13/M17 Q1017 NOSIG RMK QFE655.4 72 MOP
Conditions at: ZMUB (ULAN-BATOR , MG) observed 2300 UTC 19 March 2019
Temperature: -13.0°C ( 9°F)
Dewpoint: -17.0°C ( 1°F) [RH = 72%]
Pressure (altimeter): 30.03 inches Hg (1017.0 mb)
Winds: from the NW (310 degrees) at 9 MPH (8 knots; 4.1 m/s)
Visibility: 6 or more miles (10+ km)
Ceiling: at least 12,000 feet AGL
Clouds: scattered clouds at 10000 feet AGL
Weather: no significant weather observed at this time

METAR text: ZMUB 192230Z 32005MPS 9999 SCT100 M13/M17 Q1017 NOSIG RMK QFE655.2 71 NT
Conditions at: ZMUB (ULAN-BATOR , MG) observed 2230 UTC 19 March 2019
Temperature: -13.0°C ( 9°F)
Dewpoint: -17.0°C ( 1°F) [RH = 72%]
Pressure (altimeter): 30.03 inches Hg (1017.0 mb)
Winds: from the NW (320 degrees) at 12 MPH (10 knots; 5.1 m/s)
Visibility: 6 or more miles (10+ km)
Ceiling: at least 12,000 feet AGL
Clouds: scattered clouds at 10000 feet AGL
Weather: no significant weather observed at this time

METAR text: ZMUB 192200Z 33003MPS 9999 SCT100 M12/M17 Q1017 NOSIG RMK QFE655.1 69 NT
Conditions at: ZMUB (ULAN-BATOR , MG) observed 2200 UTC 19 March 2019
Temperature: -12.0°C (10°F)
Dewpoint: -17.0°C ( 1°F) [RH = 66%]
Pressure (altimeter): 30.03 inches Hg (1017.0 mb)
Winds: from the NNW (330 degrees) at 7 MPH (6 knots; 3.1 m/s)
Visibility: 6 or more miles (10+ km)
Ceiling: at least 12,000 feet AGL
Clouds: scattered clouds at 10000 feet AGL
Weather: no significant weather observed at this time

METAR text: ZMUB 192130Z 35004MPS 320V020 9999 SCT100 M11/M16 Q1016 NOSIG RMK QFE655.0 65 NT
Conditions at: ZMUB (ULAN-BATOR , MG) observed 2130 UTC 19 March 2019
Temperature: -11.0°C (12°F)
Dewpoint: -16.0°C ( 3°F) [RH = 67%]
Pressure (altimeter): 30.00 inches Hg (1016.0 mb)
Winds: from the N (350 degrees) at 9 MPH (8 knots; 4.1 m/s)
Visibility: 6 or more miles (10+ km)
Ceiling: at least 12,000 feet AGL
Clouds: scattered clouds at 10000 feet AGL
Weather: no significant weather observed at this time

METAR text: ZMUB 192100Z 34003MPS 9999 SCT100 M11/M16 Q1016 NOSIG RMK QFE654.9 64 NT
Conditions at: ZMUB (ULAN-BATOR , MG) observed 2100 UTC 19 March 2019
Temperature: -11.0°C (12°F)
Dewpoint: -16.0°C ( 3°F) [RH = 67%]
Pressure (altimeter): 30.00 inches Hg (1016.0 mb)
Winds: from the NNW (340 degrees) at 7 MPH (6 knots; 3.1 m/s)
Visibility: 6 or more miles (10+ km)
Ceiling: at least 12,000 feet AGL
Clouds: scattered clouds at 10000 feet AGL
Weather: no significant weather observed at this time

METAR text: ZMUB 192030Z 35004MPS 9999 SCT100 M10/M16 Q1016 NOSIG RMK QFE654.9 61 NT
Conditions at: ZMUB (ULAN-BATOR , MG) observed 2030 UTC 19 March 2019
Temperature: -10.0°C (14°F)
Dewpoint: -16.0°C ( 3°F) [RH = 61%]
Pressure (altimeter): 30.00 inches Hg (1016.0 mb)
Winds: from the N (350 degrees) at 9 MPH (8 knots; 4.1 m/s)
Visibility: 6 or more miles (10+ km)
Ceiling: at least 12,000 feet AGL
Clouds: scattered clouds at 10000 feet AGL
Weather: no significant weather observed at this time

METAR text: ZMUB 192000Z 35004MPS 9999 SCT100 M10/M15 Q1016 NOSIG RMK QFE654.9 62 NT
Conditions at: ZMUB (ULAN-BATOR , MG) observed 2000 UTC 19 March 2019
Temperature: -10.0°C (14°F)
Dewpoint: -15.0°C ( 5°F) [RH = 67%]
Pressure (altimeter): 30.00 inches Hg (1016.0 mb)
Winds: from the N (350 degrees) at 9 MPH (8 knots; 4.1 m/s)
Visibility: 6 or more miles (10+ km)
Ceiling: at least 12,000 feet AGL
Clouds: scattered clouds at 10000 feet AGL
Weather: no significant weather observed at this time

METAR text: ZMUB 191930Z 35004MPS 9999 SCT100 M10/M15 Q1016 NOSIG RMK QFE654.8 61 NT
Conditions at: ZMUB (ULAN-BATOR , MG) observed 1930 UTC 19 March 2019
Temperature: -10.0°C (14°F)
Dewpoint: -15.0°C ( 5°F) [RH = 67%]
Pressure (altimeter): 30.00 inches Hg (1016.0 mb)
Winds: from the N (350 degrees) at 9 MPH (8 knots; 4.1 m/s)
Visibility: 6 or more miles (10+ km)
Ceiling: at least 12,000 feet AGL
Clouds: scattered clouds at 10000 feet AGL
Weather: no significant weather observed at this time

METAR text: ZMUB 191900Z 35005MPS 9999 SCT100 M10/M15 Q1016 NOSIG RMK QFE654.8 60 NT
Conditions at: ZMUB (ULAN-BATOR , MG) observed 1900 UTC 19 March 2019
Temperature: -10.0°C (14°F)
Dewpoint: -15.0°C ( 5°F) [RH = 67%]
Pressure (altimeter): 30.00 inches Hg (1016.0 mb)
Winds: from the N (350 degrees) at 12 MPH (10 knots; 5.1 m/s)
Visibility: 6 or more miles (10+ km)
Ceiling: at least 12,000 feet AGL
Clouds: scattered clouds at 10000 feet AGL
Weather: no significant weather observed at this time

METAR text: ZMUB 191830Z 35006MPS 9999 SCT100 M09/M15 Q1016 NOSIG RMK QFE654.7 58 NT
Conditions at: ZMUB (ULAN-BATOR , MG) observed 1830 UTC 19 March 2019
Temperature: -9.0°C (16°F)
Dewpoint: -15.0°C ( 5°F) [RH = 62%]
Pressure (altimeter): 30.00 inches Hg (1016.0 mb)
Winds: from the N (350 degrees) at 14 MPH (12 knots; 6.2 m/s)
Visibility: 6 or more miles (10+ km)
Ceiling: at least 12,000 feet AGL
Clouds: scattered clouds at 10000 feet AGL
Weather: no significant weather observed at this time

METAR text: ZMUB 191800Z 35006MPS 9999 SCT100 M09/M15 Q1016 NOSIG RMK QFE654.5 57 NT
Conditions at: ZMUB (ULAN-BATOR , MG) observed 1800 UTC 19 March 2019
Temperature: -9.0°C (16°F)
Dewpoint: -15.0°C ( 5°F) [RH = 62%]
Pressure (altimeter): 30.00 inches Hg (1016.0 mb)
Winds: from the N (350 degrees) at 14 MPH (12 knots; 6.2 m/s)
Visibility: 6 or more miles (10+ km)
Ceiling: at least 12,000 feet AGL
Clouds: scattered clouds at 10000 feet AGL
Weather: no significant weather observed at this time

METAR text: ZMUB 191730Z 36004MPS 9999 SCT100 M09/M15 Q1015 NOSIG RMK QFE654.4 56 NT
Conditions at: ZMUB (ULAN-BATOR , MG) observed 1730 UTC 19 March 2019
Temperature: -9.0°C (16°F)
Dewpoint: -15.0°C ( 5°F) [RH = 62%]
Pressure (altimeter): 29.97 inches Hg (1015.0 mb)
Winds: from the N (360 degrees) at 9 MPH (8 knots; 4.1 m/s)
Visibility: 6 or more miles (10+ km)
Ceiling: at least 12,000 feet AGL
Clouds: scattered clouds at 10000 feet AGL
Weather: no significant weather observed at this time

METAR text: ZMUB 191700Z 35005MPS 9999 SCT100 M09/M15 Q1015 NOSIG RMK QFE654.2 56 NT
Conditions at: ZMUB (ULAN-BATOR , MG) observed 1700 UTC 19 March 2019
Temperature: -9.0°C (16°F)
Dewpoint: -15.0°C ( 5°F) [RH = 62%]
Pressure (altimeter): 29.97 inches Hg (1015.0 mb)
Winds: from the N (350 degrees) at 12 MPH (10 knots; 5.1 m/s)
Visibility: 6 or more miles (10+ km)
Ceiling: at least 12,000 feet AGL
Clouds: scattered clouds at 10000 feet AGL
Weather: no significant weather observed at this time

METAR text: ZMUB 191630Z 36004MPS 340V040 9999 FEW033 SCT100 M08/M15 Q1015 NOSIG RMK QFE654.2 56 NT
Conditions at: ZMUB (ULAN-BATOR , MG) observed 1630 UTC 19 March 2019
Temperature: -8.0°C (18°F)
Dewpoint: -15.0°C ( 5°F) [RH = 57%]
Pressure (altimeter): 29.97 inches Hg (1015.0 mb)
Winds: from the N (360 degrees) at 9 MPH (8 knots; 4.1 m/s)
Visibility: 6 or more miles (10+ km)
Ceiling: at least 12,000 feet AGL
Clouds: few clouds at 3300 feet AGL
scattered clouds at 10000 feet AGL
Weather: no significant weather observed at this time

METAR text: ZMUB 191600Z 36004MPS 9999 -SN FEW033 BKN100 M08/M15 Q1015 NOSIG RMK QFE654.0 53 NT
Conditions at: ZMUB (ULAN-BATOR , MG) observed 1600 UTC 19 March 2019
Temperature: -8.0°C (18°F)
Dewpoint: -15.0°C ( 5°F) [RH = 57%]
Pressure (altimeter): 29.97 inches Hg (1015.0 mb)
Winds: from the N (360 degrees) at 9 MPH (8 knots; 4.1 m/s)
Visibility: 6 or more miles (10+ km)
Ceiling: 10000 feet AGL
Clouds: few clouds at 3300 feet AGL
broken clouds at 10000 feet AGL
Weather: -SN  (light snow)

METAR text: ZMUB 191530Z 36004MPS 330V030 9999 FEW033 BKN100 M08/M15 Q1015 NOSIG RMK QFE654.0 54 NT
Conditions at: ZMUB (ULAN-BATOR , MG) observed 1530 UTC 19 March 2019
Temperature: -8.0°C (18°F)
Dewpoint: -15.0°C ( 5°F) [RH = 57%]
Pressure (altimeter): 29.97 inches Hg (1015.0 mb)
Winds: from the N (360 degrees) at 9 MPH (8 knots; 4.1 m/s)
Visibility: 6 or more miles (10+ km)
Ceiling: 10000 feet AGL
Clouds: few clouds at 3300 feet AGL
broken clouds at 10000 feet AGL
Weather: no significant weather observed at this time

METAR text: ZMUB 191500Z 36003MPS 330V030 9999 FEW033 BKN100 M08/M15 Q1015 NOSIG RMK QFE654.0 55 NT
Conditions at: ZMUB (ULAN-BATOR , MG) observed 1500 UTC 19 March 2019
Temperature: -8.0°C (18°F)
Dewpoint: -15.0°C ( 5°F) [RH = 57%]
Pressure (altimeter): 29.97 inches Hg (1015.0 mb)
Winds: from the N (360 degrees) at 7 MPH (6 knots; 3.1 m/s)
Visibility: 6 or more miles (10+ km)
Ceiling: 10000 feet AGL
Clouds: few clouds at 3300 feet AGL
broken clouds at 10000 feet AGL
Weather: no significant weather observed at this time

METAR text: ZMUB 191430Z 03005MPS 360V060 BKN100 M08/M14 Q1015 NOSIG RMK QFE654.0 59 NT
Conditions at: ZMUB (ULAN-BATOR , MG) observed 1430 UTC 19 March 2019
Temperature: -8.0°C (18°F)
Dewpoint: -14.0°C ( 7°F) [RH = 62%]
Pressure (altimeter): 29.97 inches Hg (1015.0 mb)
Winds: from the NNE (30 degrees) at 12 MPH (10 knots; 5.1 m/s)
Visibility: missing
Ceiling: 10000 feet AGL
Clouds: broken clouds at 10000 feet AGL
Weather: no significant weather observed at this time

METAR text: ZMUB 191400Z 03005MPS 350V060 9999 BKN100 M07/M13 Q1015 NOSIG RMK QFE653.9 59 NT
Conditions at: ZMUB (ULAN-BATOR , MG) observed 1400 UTC 19 March 2019
Temperature: -7.0°C (19°F)
Dewpoint: -13.0°C ( 9°F) [RH = 62%]
Pressure (altimeter): 29.97 inches Hg (1015.0 mb)
Winds: from the NNE (30 degrees) at 12 MPH (10 knots; 5.1 m/s)
Visibility: 6 or more miles (10+ km)
Ceiling: 10000 feet AGL
Clouds: broken clouds at 10000 feet AGL
Weather: no significant weather observed at this time

METAR text: ZMUB 191330Z 03004MPS 9999 BKN100 M07/M13 Q1015 NOSIG RMK QFE653.8 60 NT
Conditions at: ZMUB (ULAN-BATOR , MG) observed 1330 UTC 19 March 2019
Temperature: -7.0°C (19°F)
Dewpoint: -13.0°C ( 9°F) [RH = 62%]
Pressure (altimeter): 29.97 inches Hg (1015.0 mb)
Winds: from the NNE (30 degrees) at 9 MPH (8 knots; 4.1 m/s)
Visibility: 6 or more miles (10+ km)
Ceiling: 10000 feet AGL
Clouds: broken clouds at 10000 feet AGL
Weather: no significant weather observed at this time

METAR text: ZMUB 191300Z 03004MPS 360V070 9999 BKN100 M07/M13 Q1014 NOSIG RMK QFE653.7 61 NT
Conditions at: ZMUB (ULAN-BATOR , MG) observed 1300 UTC 19 March 2019
Temperature: -7.0°C (19°F)
Dewpoint: -13.0°C ( 9°F) [RH = 62%]
Pressure (altimeter): 29.94 inches Hg (1014.0 mb)
Winds: from the NNE (30 degrees) at 9 MPH (8 knots; 4.1 m/s)
Visibility: 6 or more miles (10+ km)
Ceiling: 10000 feet AGL
Clouds: broken clouds at 10000 feet AGL
Weather: no significant weather observed at this time

METAR text: ZMUB 191230Z 02004MPS 340V050 9999 FEW027 BKN100 M07/M13 Q1014 NOSIG RMK QFE653.5 59 NT
Conditions at: ZMUB (ULAN-BATOR , MG) observed 1230 UTC 19 March 2019
Temperature: -7.0°C (19°F)
Dewpoint: -13.0°C ( 9°F) [RH = 62%]
Pressure (altimeter): 29.94 inches Hg (1014.0 mb)
Winds: from the NNE (20 degrees) at 9 MPH (8 knots; 4.1 m/s)
Visibility: 6 or more miles (10+ km)
Ceiling: 10000 feet AGL
Clouds: few clouds at 2700 feet AGL
broken clouds at 10000 feet AGL
Weather: no significant weather observed at this time

METAR text: ZMUB 191200Z 02005MPS 350V070 9999 FEW027 BKN100 M07/M14 Q1014 NOSIG RMK QFE653.2 56 ESE CM
Conditions at: ZMUB (ULAN-BATOR , MG) observed 1200 UTC 19 March 2019
Temperature: -7.0°C (19°F)
Dewpoint: -14.0°C ( 7°F) [RH = 57%]
Pressure (altimeter): 29.94 inches Hg (1014.0 mb)
Winds: from the NNE (20 degrees) at 12 MPH (10 knots; 5.1 m/s)
Visibility: 6 or more miles (10+ km)
Ceiling: 10000 feet AGL
Clouds: few clouds at 2700 feet AGL
broken clouds at 10000 feet AGL
Weather: no significant weather observed at this time

METAR text: ZMUB 191130Z 03005MPS 320V050 9999 FEW027 BKN100 M07/M14 Q1013 NOSIG RMK QFE652.9 56 ESE CM
Conditions at: ZMUB (ULAN-BATOR , MG) observed 1130 UTC 19 March 2019
Temperature: -7.0°C (19°F)
Dewpoint: -14.0°C ( 7°F) [RH = 57%]
Pressure (altimeter): 29.91 inches Hg (1013.0 mb)
Winds: from the NNE (30 degrees) at 12 MPH (10 knots; 5.1 m/s)
Visibility: 6 or more miles (10+ km)
Ceiling: 10000 feet AGL
Clouds: few clouds at 2700 feet AGL
broken clouds at 10000 feet AGL
Weather: no significant weather observed at this time

METAR text: ZMUB 191100Z 02005MPS 9999 FEW027 BKN100 M07/M14 Q1013 NOSIG RMK QFE652.6 55 ESE CM
Conditions at: ZMUB (ULAN-BATOR , MG) observed 1100 UTC 19 March 2019
Temperature: -7.0°C (19°F)
Dewpoint: -14.0°C ( 7°F) [RH = 57%]
Pressure (altimeter): 29.91 inches Hg (1013.0 mb)
Winds: from the NNE (20 degrees) at 12 MPH (10 knots; 5.1 m/s)
Visibility: 6 or more miles (10+ km)
Ceiling: 10000 feet AGL
Clouds: few clouds at 2700 feet AGL
broken clouds at 10000 feet AGL
Weather: no significant weather observed at this time

METAR text: ZMUB 191030Z 01005MPS 340V040 9999 FEW027 BKN100 M07/M13 Q1012 NOSIG RMK QFE652.2 56 ESE CM
Conditions at: ZMUB (ULAN-BATOR , MG) observed 1030 UTC 19 March 2019
Temperature: -7.0°C (19°F)
Dewpoint: -13.0°C ( 9°F) [RH = 62%]
Pressure (altimeter): 29.88 inches Hg (1012.0 mb)
Winds: from the N (10 degrees) at 12 MPH (10 knots; 5.1 m/s)
Visibility: 6 or more miles (10+ km)
Ceiling: 10000 feet AGL
Clouds: few clouds at 2700 feet AGL
broken clouds at 10000 feet AGL
Weather: no significant weather observed at this time

METAR text: ZMUB 191000Z 36005MPS 320V030 9999 FEW027 BKN100 M07/M13 Q1011 NOSIG RMK QFE651.8 56 ESE CM
Conditions at: ZMUB (ULAN-BATOR , MG) observed 1000 UTC 19 March 2019
Temperature: -7.0°C (19°F)
Dewpoint: -13.0°C ( 9°F) [RH = 62%]
Pressure (altimeter): 29.85 inches Hg (1011.0 mb)
Winds: from the N (360 degrees) at 12 MPH (10 knots; 5.1 m/s)
Visibility: 6 or more miles (10+ km)
Ceiling: 10000 feet AGL
Clouds: few clouds at 2700 feet AGL
broken clouds at 10000 feet AGL
Weather: no significant weather observed at this time

METAR text: ZMUB 190930Z 35007MPS 320V030 9999 -SN FEW027 BKN100 M06/M13 Q1011 NOSIG RMK QFE651.7 54 ESE CM
Conditions at: ZMUB (ULAN-BATOR , MG) observed 0930 UTC 19 March 2019
Temperature: -6.0°C (21°F)
Dewpoint: -13.0°C ( 9°F) [RH = 58%]
Pressure (altimeter): 29.85 inches Hg (1011.0 mb)
Winds: from the N (350 degrees) at 16 MPH (14 knots; 7.2 m/s)
Visibility: 6 or more miles (10+ km)
Ceiling: 10000 feet AGL
Clouds: few clouds at 2700 feet AGL
broken clouds at 10000 feet AGL
Weather: -SN  (light snow)

METAR text: ZMUB 190900Z 35007MPS 9999 -SN FEW027 BKN100 M06/M13 Q1011 NOSIG RMK QFE651.4 53 ESE CM
Conditions at: ZMUB (ULAN-BATOR , MG) observed 0900 UTC 19 March 2019
Temperature: -6.0°C (21°F)
Dewpoint: -13.0°C ( 9°F) [RH = 58%]
Pressure (altimeter): 29.85 inches Hg (1011.0 mb)
Winds: from the N (350 degrees) at 16 MPH (14 knots; 7.2 m/s)
Visibility: 6 or more miles (10+ km)
Ceiling: 10000 feet AGL
Clouds: few clouds at 2700 feet AGL
broken clouds at 10000 feet AGL
Weather: -SN  (light snow)

METAR text: ZMUB 190830Z 35007MPS 320V030 9999 BKN100 M06/M14 Q1010 NOSIG RMK QFE651.1 50 MOP
Conditions at: ZMUB (ULAN-BATOR , MG) observed 0830 UTC 19 March 2019
Temperature: -6.0°C (21°F)
Dewpoint: -14.0°C ( 7°F) [RH = 53%]
Pressure (altimeter): 29.82 inches Hg (1010.0 mb)
Winds: from the N (350 degrees) at 16 MPH (14 knots; 7.2 m/s)
Visibility: 6 or more miles (10+ km)
Ceiling: 10000 feet AGL
Clouds: broken clouds at 10000 feet AGL
Weather: no significant weather observed at this time

METAR text: ZMUB 190800Z 35008MPS 9999 BKN100 M05/M14 Q1010 NOSIG RMK QFE651.0 49 MOP
Conditions at: ZMUB (ULAN-BATOR , MG) observed 0800 UTC 19 March 2019
Temperature: -5.0°C (23°F)
Dewpoint: -14.0°C ( 7°F) [RH = 49%]
Pressure (altimeter): 29.82 inches Hg (1010.0 mb)
Winds: from the N (350 degrees) at 18 MPH (16 knots; 8.2 m/s)
Visibility: 6 or more miles (10+ km)
Ceiling: 10000 feet AGL
Clouds: broken clouds at 10000 feet AGL
Weather: no significant weather observed at this time

METAR text: ZMUB 190730Z 35008G13MPS 9999 BKN100 M05/M14 Q1010 NOSIG RMK QFE650.9 48 MOP
Conditions at: ZMUB (ULAN-BATOR , MG) observed 0730 UTC 19 March 2019
Temperature: -5.0°C (23°F)
Dewpoint: -14.0°C ( 7°F) [RH = 49%]
Pressure (altimeter): 29.82 inches Hg (1010.0 mb)
Winds: from the N (350 degrees) at 18 MPH (16 knots; 8.2 m/s)
gusting to 29 MPH (25 knots; 12.9 m/s)
Visibility: 6 or more miles (10+ km)
Ceiling: 10000 feet AGL
Clouds: broken clouds at 10000 feet AGL
Weather: no significant weather observed at this time

METAR text: ZMUB 190700Z 35008G13MPS 9999 FEW033 BKN100 M05/M14 Q1010 NOSIG RMK QFE650.8 46 MOP
Conditions at: ZMUB (ULAN-BATOR , MG) observed 0700 UTC 19 March 2019
Temperature: -5.0°C (23°F)
Dewpoint: -14.0°C ( 7°F) [RH = 49%]
Pressure (altimeter): 29.82 inches Hg (1010.0 mb)
Winds: from the N (350 degrees) at 18 MPH (16 knots; 8.2 m/s)
gusting to 29 MPH (25 knots; 12.9 m/s)
Visibility: 6 or more miles (10+ km)
Ceiling: 10000 feet AGL
Clouds: few clouds at 3300 feet AGL
broken clouds at 10000 feet AGL
Weather: no significant weather observed at this time

METAR text: ZMUB 190630Z 36009MPS 9999 FEW033 BKN100 M05/M14 Q1010 NOSIG RMK QFE650.7 46 MOP
Conditions at: ZMUB (ULAN-BATOR , MG) observed 0630 UTC 19 March 2019
Temperature: -5.0°C (23°F)
Dewpoint: -14.0°C ( 7°F) [RH = 49%]
Pressure (altimeter): 29.82 inches Hg (1010.0 mb)
Winds: from the N (360 degrees) at 20 MPH (17 knots; 8.7 m/s)
Visibility: 6 or more miles (10+ km)
Ceiling: 10000 feet AGL
Clouds: few clouds at 3300 feet AGL
broken clouds at 10000 feet AGL
Weather: no significant weather observed at this time

METAR text: ZMUB 190600Z 35009MPS 310V010 9999 FEW033 BKN100 M05/M14 Q1010 NOSIG RMK QFE650.8 46 MOP
Conditions at: ZMUB (ULAN-BATOR , MG) observed 0600 UTC 19 March 2019
Temperature: -5.0°C (23°F)
Dewpoint: -14.0°C ( 7°F) [RH = 49%]
Pressure (altimeter): 29.82 inches Hg (1010.0 mb)
Winds: from the N (350 degrees) at 20 MPH (17 knots; 8.7 m/s)
Visibility: 6 or more miles (10+ km)
Ceiling: 10000 feet AGL
Clouds: few clouds at 3300 feet AGL
broken clouds at 10000 feet AGL
Weather: no significant weather observed at this time

METAR text: ZMUB 190530Z 35009MPS 320V020 9999 FEW033 SCT100 M05/M14 Q1010 NOSIG RMK QFE651.0 45 MOP
Conditions at: ZMUB (ULAN-BATOR , MG) observed 0530 UTC 19 March 2019
Temperature: -5.0°C (23°F)
Dewpoint: -14.0°C ( 7°F) [RH = 49%]
Pressure (altimeter): 29.82 inches Hg (1010.0 mb)
Winds: from the N (350 degrees) at 20 MPH (17 knots; 8.7 m/s)
Visibility: 6 or more miles (10+ km)
Ceiling: at least 12,000 feet AGL
Clouds: few clouds at 3300 feet AGL
scattered clouds at 10000 feet AGL
Weather: no significant weather observed at this time

METAR text: ZMUB 190500Z 35010MPS 9999 FEW033 SCT100 M05/M14 Q1010 NOSIG RMK QFE651.0 45 MOP
Conditions at: ZMUB (ULAN-BATOR , MG) observed 0500 UTC 19 March 2019
Temperature: -5.0°C (23°F)
Dewpoint: -14.0°C ( 7°F) [RH = 49%]
Pressure (altimeter): 29.82 inches Hg (1010.0 mb)
Winds: from the N (350 degrees) at 22 MPH (19 knots; 9.8 m/s)
Visibility: 6 or more miles (10+ km)
Ceiling: at least 12,000 feet AGL
Clouds: few clouds at 3300 feet AGL
scattered clouds at 10000 feet AGL
Weather: no significant weather observed at this time

METAR text: ZMUB 190430Z 36009MPS 9999 FEW033 SCT100 M05/M13 Q1009 NOSIG RMK QFE650.5 47 MOP
Conditions at: ZMUB (ULAN-BATOR , MG) observed 0430 UTC 19 March 2019
Temperature: -5.0°C (23°F)
Dewpoint: -13.0°C ( 9°F) [RH = 53%]
Pressure (altimeter): 29.79 inches Hg (1009.0 mb)
Winds: from the N (360 degrees) at 20 MPH (17 knots; 8.7 m/s)
Visibility: 6 or more miles (10+ km)
Ceiling: at least 12,000 feet AGL
Clouds: few clouds at 3300 feet AGL
scattered clouds at 10000 feet AGL
Weather: no significant weather observed at this time

METAR text: ZMUB 190400Z 35009G14MPS 9999 FEW033 SCT100 M05/M13 Q1009 NOSIG RMK QFE650.4 48 MOP
Conditions at: ZMUB (ULAN-BATOR , MG) observed 0400 UTC 19 March 2019
Temperature: -5.0°C (23°F)
Dewpoint: -13.0°C ( 9°F) [RH = 53%]
Pressure (altimeter): 29.79 inches Hg (1009.0 mb)
Winds: from the N (350 degrees) at 20 MPH (17 knots; 8.7 m/s)
gusting to 31 MPH (27 knots; 13.9 m/s)
Visibility: 6 or more miles (10+ km)
Ceiling: at least 12,000 feet AGL
Clouds: few clouds at 3300 feet AGL
scattered clouds at 10000 feet AGL
Weather: no significant weather observed at this time

METAR text: ZMUB 190330Z 35010MPS 9999 FEW033 SCT100 M05/M13 Q1009 NOSIG RMK QFE650.4 51 MOP
Conditions at: ZMUB (ULAN-BATOR , MG) observed 0330 UTC 19 March 2019
Temperature: -5.0°C (23°F)
Dewpoint: -13.0°C ( 9°F) [RH = 53%]
Pressure (altimeter): 29.79 inches Hg (1009.0 mb)
Winds: from the N (350 degrees) at 22 MPH (19 knots; 9.8 m/s)
Visibility: 6 or more miles (10+ km)
Ceiling: at least 12,000 feet AGL
Clouds: few clouds at 3300 feet AGL
scattered clouds at 10000 feet AGL
Weather: no significant weather observed at this time

METAR text: ZMUB 190300Z 36009MPS 9999 VCBLSN FEW033 SCT100 M06/M13 Q1009 NOSIG RMK QFE650.5 52 MOP
Conditions at: ZMUB (ULAN-BATOR , MG) observed 0300 UTC 19 March 2019
Temperature: -6.0°C (21°F)
Dewpoint: -13.0°C ( 9°F) [RH = 58%]
Pressure (altimeter): 29.79 inches Hg (1009.0 mb)
Winds: from the N (360 degrees) at 20 MPH (17 knots; 8.7 m/s)
Visibility: 6 or more miles (10+ km)
Ceiling: at least 12,000 feet AGL
Clouds: few clouds at 3300 feet AGL
scattered clouds at 10000 feet AGL
Weather: VCBLSN  (blowing snow in vicinity)

METAR text: ZMUB 190230Z 35009MPS 9999 FEW033 SCT100 M06/M13 Q1009 NOSIG RMK QFE650.5 54 MOP
Conditions at: ZMUB (ULAN-BATOR , MG) observed 0230 UTC 19 March 2019
Temperature: -6.0°C (21°F)
Dewpoint: -13.0°C ( 9°F) [RH = 58%]
Pressure (altimeter): 29.79 inches Hg (1009.0 mb)
Winds: from the N (350 degrees) at 20 MPH (17 knots; 8.7 m/s)
Visibility: 6 or more miles (10+ km)
Ceiling: at least 12,000 feet AGL
Clouds: few clouds at 3300 feet AGL
scattered clouds at 10000 feet AGL
Weather: no significant weather observed at this time

METAR text: ZMUB 190200Z 35009MPS 320V020 9999 FEW033 SCT100 M06/M12 Q1009 NOSIG RMK QFE650.2 55 MOP
Conditions at: ZMUB (ULAN-BATOR , MG) observed 0200 UTC 19 March 2019
Temperature: -6.0°C (21°F)
Dewpoint: -12.0°C (10°F) [RH = 62%]
Pressure (altimeter): 29.79 inches Hg (1009.0 mb)
Winds: from the N (350 degrees) at 20 MPH (17 knots; 8.7 m/s)
Visibility: 6 or more miles (10+ km)
Ceiling: at least 12,000 feet AGL
Clouds: few clouds at 3300 feet AGL
scattered clouds at 10000 feet AGL
Weather: no significant weather observed at this time

METAR text: ZMUB 190130Z 35008G13MPS 9999 FEW033 BKN100 M06/M13 Q1009 NOSIG RMK QFE650.2 59 MOP
Conditions at: ZMUB (ULAN-BATOR , MG) observed 0130 UTC 19 March 2019
Temperature: -6.0°C (21°F)
Dewpoint: -13.0°C ( 9°F) [RH = 58%]
Pressure (altimeter): 29.79 inches Hg (1009.0 mb)
Winds: from the N (350 degrees) at 18 MPH (16 knots; 8.2 m/s)
gusting to 29 MPH (25 knots; 12.9 m/s)
Visibility: 6 or more miles (10+ km)
Ceiling: 10000 feet AGL
Clouds: few clouds at 3300 feet AGL
broken clouds at 10000 feet AGL
Weather: no significant weather observed at this time

METAR text: ZMUB 190100Z 35008MPS 9999 FEW033 BKN100 M07/M12 Q1009 NOSIG RMK QFE650.1 61 MOP
Conditions at: ZMUB (ULAN-BATOR , MG) observed 0100 UTC 19 March 2019
Temperature: -7.0°C (19°F)
Dewpoint: -12.0°C (10°F) [RH = 67%]
Pressure (altimeter): 29.79 inches Hg (1009.0 mb)
Winds: from the N (350 degrees) at 18 MPH (16 knots; 8.2 m/s)
Visibility: 6 or more miles (10+ km)
Ceiling: 10000 feet AGL
Clouds: few clouds at 3300 feet AGL
broken clouds at 10000 feet AGL
Weather: no significant weather observed at this time

METAR text: ZMUB 190030Z 35009MPS 9999 FEW033 BKN100 M07/M12 Q1008 NOSIG RMK QFE649.6 63 MOP
Conditions at: ZMUB (ULAN-BATOR , MG) observed 0030 UTC 19 March 2019
Temperature: -7.0°C (19°F)
Dewpoint: -12.0°C (10°F) [RH = 67%]
Pressure (altimeter): 29.76 inches Hg (1008.0 mb)
Winds: from the N (350 degrees) at 20 MPH (17 knots; 8.7 m/s)
Visibility: 6 or more miles (10+ km)
Ceiling: 10000 feet AGL
Clouds: few clouds at 3300 feet AGL
broken clouds at 10000 feet AGL
Weather: no significant weather observed at this time

METAR text: ZMUB 190000Z 34007MPS 320V020 9999 FEW033 BKN100 M07/M12 Q1007 NOSIG RMK QFE649.0 65 MOP
Conditions at: ZMUB (ULAN-BATOR , MG) observed 0000 UTC 19 March 2019
Temperature: -7.0°C (19°F)
Dewpoint: -12.0°C (10°F) [RH = 67%]
Pressure (altimeter): 29.73 inches Hg (1007.0 mb)
Winds: from the NNW (340 degrees) at 16 MPH (14 knots; 7.2 m/s)
Visibility: 6 or more miles (10+ km)
Ceiling: 10000 feet AGL
Clouds: few clouds at 3300 feet AGL
broken clouds at 10000 feet AGL
Weather: no significant weather observed at this time

METAR text: ZMUB 182330Z 34007MPS 9999 FEW033 SCT100 M07/M12 Q1006 NOSIG RMK QFE648.7 67 MOP
Conditions at: ZMUB (ULAN-BATOR , MG) observed 2330 UTC 18 March 2019
Temperature: -7.0°C (19°F)
Dewpoint: -12.0°C (10°F) [RH = 67%]
Pressure (altimeter): 29.70 inches Hg (1006.0 mb)
Winds: from the NNW (340 degrees) at 16 MPH (14 knots; 7.2 m/s)
Visibility: 6 or more miles (10+ km)
Ceiling: at least 12,000 feet AGL
Clouds: few clouds at 3300 feet AGL
scattered clouds at 10000 feet AGL
Weather: no significant weather observed at this time

METAR text: ZMUB 182300Z 35008MPS 9999 FEW033 SCT100 M07/M12 Q1006 NOSIG RMK QFE648.3 67 MOP
Conditions at: ZMUB (ULAN-BATOR , MG) observed 2300 UTC 18 March 2019
Temperature: -7.0°C (19°F)
Dewpoint: -12.0°C (10°F) [RH = 67%]
Pressure (altimeter): 29.70 inches Hg (1006.0 mb)
Winds: from the N (350 degrees) at 18 MPH (16 knots; 8.2 m/s)
Visibility: 6 or more miles (10+ km)
Ceiling: at least 12,000 feet AGL
Clouds: few clouds at 3300 feet AGL
scattered clouds at 10000 feet AGL
Weather: no significant weather observed at this time

METAR text: ZMUB 182230Z 35008G14MPS 330V030 9999 FEW033 SCT100 M07/M12 Q1006 NOSIG RMK QFE648.1 67 NT
Conditions at: ZMUB (ULAN-BATOR , MG) observed 2230 UTC 18 March 2019
Temperature: -7.0°C (19°F)
Dewpoint: -12.0°C (10°F) [RH = 67%]
Pressure (altimeter): 29.70 inches Hg (1006.0 mb)
Winds: from the N (350 degrees) at 18 MPH (16 knots; 8.2 m/s)
gusting to 31 MPH (27 knots; 13.9 m/s)
Visibility: 6 or more miles (10+ km)
Ceiling: at least 12,000 feet AGL
Clouds: few clouds at 3300 feet AGL
scattered clouds at 10000 feet AGL
Weather: no significant weather observed at this time

METAR text: ZMUB 182200Z 36007MPS 9999 FEW033 SCT100 M07/M11 Q1005 NOSIG RMK QFE648.0 68 NT
Conditions at: ZMUB (ULAN-BATOR , MG) observed 2200 UTC 18 March 2019
Temperature: -7.0°C (19°F)
Dewpoint: -11.0°C (12°F) [RH = 73%]
Pressure (altimeter): 29.68 inches Hg (1005.0 mb)
Winds: from the N (360 degrees) at 16 MPH (14 knots; 7.2 m/s)
Visibility: 6 or more miles (10+ km)
Ceiling: at least 12,000 feet AGL
Clouds: few clouds at 3300 feet AGL
scattered clouds at 10000 feet AGL
Weather: no significant weather observed at this time

METAR text: ZMUB 182130Z 35008MPS 9999 FEW033 SCT100 M07/M11 Q1005 NOSIG RMK QFE648.0 71 NT
Conditions at: ZMUB (ULAN-BATOR , MG) observed 2130 UTC 18 March 2019
Temperature: -7.0°C (19°F)
Dewpoint: -11.0°C (12°F) [RH = 73%]
Pressure (altimeter): 29.68 inches Hg (1005.0 mb)
Winds: from the N (350 degrees) at 18 MPH (16 knots; 8.2 m/s)
Visibility: 6 or more miles (10+ km)
Ceiling: at least 12,000 feet AGL
Clouds: few clouds at 3300 feet AGL
scattered clouds at 10000 feet AGL
Weather: no significant weather observed at this time

METAR text: ZMUB 182100Z 34007MPS 9999 SCT030 SCT080 M06/M10 Q1005 NOSIG RMK QFE647.8 70 NT
Conditions at: ZMUB (ULAN-BATOR , MG) observed 2100 UTC 18 March 2019
Temperature: -6.0°C (21°F)
Dewpoint: -10.0°C (14°F) [RH = 73%]
Pressure (altimeter): 29.68 inches Hg (1005.0 mb)
Winds: from the NNW (340 degrees) at 16 MPH (14 knots; 7.2 m/s)
Visibility: 6 or more miles (10+ km)
Ceiling: at least 12,000 feet AGL
Clouds: scattered clouds at 3000 feet AGL
scattered clouds at 8000 feet AGL
Weather: no significant weather observed at this time

Forecast for: ZMUB (ULAN-BATOR , MG)
Text: TAF ZMUB 200440Z 2006/2112 34007MPS 9999 SCT100 TXM03/2007Z TNM17/2023Z
Forecast period: 0600 to 1000 UTC 20 March 2019
Forecast type: FROM: standard forecast or significant change
Winds: from the NNW (340 degrees) at 16 MPH (14 knots; 7.2 m/s)
Visibility: 6 or more miles 10+ km)
Ceiling: at least 12,000 feet AGL
Clouds: scattered clouds at 10000 feet AGL
Weather: no significant weather forecast for this period
Text: BECMG 2010/2012 VRB02MPS
Forecast period: 1000 UTC 20 March 2019 to 0600 UTC 21 March 2019
Forecast type: BECOMING: Conditions expected to become as follows by 1200 UTC 20 March 2019
Winds: variable direction winds at 5 MPH (4 knots; 2.1 m/s)
Visibility: 6 or more miles 10+ km)
Ceiling: at least 12,000 feet AGL
Clouds: scattered clouds at 10000 feet AGL
Weather: no significant weather forecast for this period
Text: BECMG 2106/2108 31005MPS
Forecast period: 0600 to 1200 UTC 21 March 2019
Forecast type: BECOMING: Conditions expected to become as follows by 0800 UTC 21 March 2019
Winds: from the NW (310 degrees) at 12 MPH (10 knots; 5.1 m/s)
Visibility: 6 or more miles 10+ km)
Ceiling: at least 12,000 feet AGL
Clouds: scattered clouds at 10000 feet AGL
Weather: no significant weather forecast for this period